Time;durP1;ratioP1;P1;durP2;ratioP2;P2;SDS_P1;SDS_P2;PMS_P1;PMS_P2;Temp;Humidity;BMP_temperature;BMP_pressure;BME280_temperature;BME280_humidity;BME280_pressure;Samples;Min_cycle;Max_cycle;Signal;HPM_P1;HPM_P2
2021/09/27 05:47:06;;;;;;;11.68;9.45;;;;;;;16.36;100.00;100995.88;5059468;28;20060;-69
2021/09/27 05:50:02;;;;;;;12.15;9.43;;;;;;;16.52;100.00;100992.88;5017218;28;20115;-68
2021/09/27 05:52:43;;;;;;;17.20;9.53;;;;;;;16.56;100.00;100990.81;5020420;28;20045;-68
2021/09/27 05:55:37;;;;;;;12.45;9.07;;;;;;;16.59;100.00;100988.78;5027312;28;20411;-67
2021/09/27 05:58:27;;;;;;;10.88;9.43;;;;;;;16.58;100.00;100988.91;4997160;28;20080;-67
2021/09/27 06:01:02;;;;;;;12.18;9.00;;;;;;;16.65;100.00;100992.75;5030136;28;20594;-68
2021/09/27 06:03:32;;;;;;;;;;;;;;;16.65;100.00;100979.47;5029817;28;20115;-68
2021/09/27 06:06:26;;;;;;;13.13;9.07;;;;;;;16.55;100.00;100968.72;5004296;28;19993;-68
2021/09/27 06:08:59;;;;;;;11.70;8.52;;;;;;;16.48;100.00;100985.25;4989328;28;20063;-69
2021/09/27 06:11:45;;;;;;;10.57;8.73;;;;;;;16.70;100.00;100978.13;5028300;28;20056;-67
2021/09/27 06:14:15;;;;;;;10.80;9.50;;;;;;;16.80;100.00;100967.66;5024149;28;20088;-68
2021/09/27 06:17:19;;;;;;;15.45;9.75;;;;;;;16.73;100.00;100974.44;5027983;28;20052;-68
2021/09/27 06:20:07;;;;;;;12.45;8.45;;;;;;;16.81;100.00;100987.13;5000500;28;20046;-68
2021/09/27 06:24:13;;;;;;;12.45;9.48;;;;;;;16.89;100.00;100976.72;5140755;27;21084;-69
2021/09/27 06:27:04;;;;;;;14.60;9.93;;;;;;;17.20;98.84;100978.63;5129000;27;20047;-68
2021/09/27 06:29:58;;;;;;;9.23;8.30;;;;;;;17.78;94.97;100977.47;5133032;27;20083;-68
2021/09/27 06:32:35;;;;;;;9.88;8.10;;;;;;;18.42;90.20;100982.66;5119145;27;20043;-67
2021/09/27 06:35:07;;;;;;;9.70;8.38;;;;;;;19.12;86.10;100989.00;5115006;27;20501;-68
2021/09/27 06:37:35;;;;;;;10.95;9.02;;;;;;;19.45;83.14;100974.44;5102256;28;20461;-67
2021/09/27 06:40:06;;;;;;;10.38;8.05;;;;;;;19.55;82.76;100977.97;5113283;27;20174;-69
2021/09/27 06:42:33;;;;;;;14.35;8.45;;;;;;;19.89;80.52;100980.22;5122685;27;20193;-68
2021/09/27 06:45:00;;;;;;;9.93;8.02;;;;;;;19.44;82.21;100970.91;5116022;27;20051;-68
2021/09/27 06:47:28;;;;;;;11.90;7.90;;;;;;;19.84;80.61;100975.31;5114767;27;20054;-67
2021/09/27 06:49:55;;;;;;;10.25;8.27;;;;;;;20.09;79.10;100965.03;5115929;27;20043;-68
2021/09/27 06:52:22;;;;;;;9.23;6.72;;;;;;;20.37;77.02;100961.44;5124158;27;20092;-66
2021/09/27 06:54:49;;;;;;;11.50;7.32;;;;;;;20.57;76.12;100967.56;5113713;27;20146;-70
2021/09/27 06:57:19;;;;;;;10.43;7.65;;;;;;;21.01;74.47;100949.06;5106753;27;20050;-71
2021/09/27 06:59:54;;;;;;;12.65;8.05;;;;;;;20.94;72.60;100948.81;5112714;27;20044;-67
2021/09/27 07:02:22;;;;;;;12.73;8.35;;;;;;;20.77;72.68;100941.59;5114113;27;20073;-68
2021/09/27 07:04:51;;;;;;;10.95;6.97;;;;;;;20.52;74.16;100937.75;5114545;27;20055;-68
2021/09/27 07:07:19;;;;;;;14.23;8.30;;;;;;;20.38;74.69;100943.56;5096425;27;20048;-68
2021/09/27 07:09:46;;;;;;;9.77;7.18;;;;;;;20.37;75.73;100944.56;5115002;27;20123;-68
2021/09/27 07:12:14;;;;;;;13.70;7.47;;;;;;;21.16;72.62;100936.88;5112926;28;20292;-66
2021/09/27 07:14:41;;;;;;;13.40;8.27;;;;;;;21.47;71.40;100942.69;5113668;27;20657;-69
2021/09/27 07:17:09;;;;;;;8.30;7.28;;;;;;;22.12;67.97;100944.25;5121699;27;20135;-76
2021/09/27 07:19:36;;;;;;;11.82;7.60;;;;;;;22.88;64.34;100951.53;5123133;27;20096;-77
2021/09/27 07:22:20;;;;;;;12.10;7.50;;;;;;;22.63;65.68;100953.25;5125417;27;20105;-68
2021/09/27 07:24:48;;;;;;;12.73;7.80;;;;;;;23.11;63.47;100955.31;5115101;27;20712;-68
2021/09/27 07:27:15;;;;;;;11.45;8.07;;;;;;;23.90;60.58;100959.28;5116760;28;20154;-69
2021/09/27 07:29:44;;;;;;;9.73;7.47;;;;;;;24.23;58.86;100954.72;5115788;27;20406;-69
2021/09/27 07:32:11;;;;;;;15.93;7.90;;;;;;;24.43;58.05;100965.13;5120942;27;20081;-70
2021/09/27 07:34:38;;;;;;;10.13;7.97;;;;;;;24.56;57.51;100965.41;5110238;27;20049;-69
2021/09/27 07:37:05;;;;;;;10.35;7.40;;;;;;;24.21;58.19;100962.09;5095664;27;20513;-69
2021/09/27 07:39:33;;;;;;;8.23;7.35;;;;;;;23.96;59.05;100963.16;5088938;28;20609;-72
2021/09/27 07:42:00;;;;;;;10.75;8.13;;;;;;;24.53;57.36;100962.22;5101019;27;20139;-70
2021/09/27 07:44:42;;;;;;;10.48;6.93;;;;;;;24.91;55.53;100964.09;5104387;27;20425;-71
2021/09/27 07:47:26;;;;;;;15.45;9.15;;;;;;;24.18;57.88;100962.47;5101939;28;20053;-72
2021/09/27 07:50:04;;;;;;;15.63;8.55;;;;;;;24.17;58.08;100963.44;5090206;28;20946;-69
2021/09/27 07:52:34;;;;;;;13.77;8.23;;;;;;;23.46;59.96;100964.09;5070686;28;20109;-67
2021/09/27 07:55:04;;;;;;;11.27;7.28;;;;;;;22.77;63.04;100965.22;5092839;28;20150;-67
2021/09/27 07:57:33;;;;;;;8.55;7.07;;;;;;;21.91;66.37;100957.97;5083276;28;20044;-68
2021/09/27 08:00:11;;;;;;;;;;;;;;;22.19;65.84;100956.84;5099151;28;20031;-66
2021/09/27 08:02:47;;;;;;;11.45;7.78;;;;;;;22.61;64.60;100948.06;5087049;28;19927;-69
2021/09/27 08:05:25;;;;;;;10.57;7.03;;;;;;;22.33;65.62;100951.91;5100112;28;20051;-67
2021/09/27 08:07:53;;;;;;;9.43;7.25;;;;;;;22.46;64.73;100947.78;5110637;27;20047;-67
2021/09/27 08:10:22;;;;;;;9.93;7.60;;;;;;;22.44;64.96;100940.94;5101784;28;20036;-68
2021/09/27 08:12:50;;;;;;;8.27;6.80;;;;;;;21.87;67.04;100940.53;5103424;28;20124;-68
2021/09/27 08:15:21;;;;;;;9.45;7.68;;;;;;;22.24;66.50;100946.53;5089918;27;20676;-69
2021/09/27 08:17:54;;;;;;;8.10;7.22;;;;;;;22.76;64.21;100950.97;5086105;28;20083;-67
2021/09/27 08:20:26;;;;;;;13.57;7.90;;;;;;;23.37;61.98;100948.97;5080375;28;20060;-68
2021/09/27 08:22:54;;;;;;;10.55;7.38;;;;;;;22.66;64.50;100948.41;5109984;27;20131;-67
2021/09/27 08:25:22;;;;;;;10.95;7.38;;;;;;;22.57;64.54;100952.06;5121830;27;20103;-66
2021/09/27 08:27:49;;;;;;;10.70;7.20;;;;;;;22.03;66.40;100955.91;5111447;27;20531;-66
2021/09/27 08:30:24;;;;;;;9.93;8.10;;;;;;;21.32;69.04;100954.94;5098454;27;20126;-67
2021/09/27 08:32:51;;;;;;;9.65;7.43;;;;;;;21.15;70.75;100964.59;5101949;27;20578;-67
2021/09/27 08:35:19;;;;;;;11.13;7.35;;;;;;;21.16;70.84;100968.13;5102192;27;20051;-66
2021/09/27 08:37:48;;;;;;;14.00;8.10;;;;;;;20.82;72.48;100981.28;5101677;27;20441;-68
2021/09/27 08:40:33;;;;;;;12.05;7.00;;;;;;;20.80;73.49;100972.53;5096714;27;20346;-68
2021/09/27 08:43:18;;;;;;;10.32;7.78;;;;;;;20.64;74.60;100974.03;5105463;27;20145;-67
2021/09/27 08:45:47;;;;;;;10.02;7.72;;;;;;;20.58;75.24;100977.31;5086443;28;20061;-68
2021/09/27 08:48:25;;;;;;;11.25;7.28;;;;;;;20.28;77.06;100977.50;5102964;27;20063;-67
2021/09/27 08:50:52;;;;;;;10.40;7.57;;;;;;;20.22;76.94;100981.59;5097600;27;20052;-67
2021/09/27 08:53:19;;;;;;;10.55;9.07;;;;;;;20.45;76.46;100993.66;5104783;27;20131;-66
2021/09/27 08:55:48;;;;;;;8.80;7.57;;;;;;;20.61;76.94;100987.69;5101831;27;20123;-67
2021/09/27 08:58:18;;;;;;;11.73;7.28;;;;;;;20.81;75.77;100985.81;5098635;27;20051;-67
2021/09/27 09:00:52;;;;;;;13.65;9.05;;;;;;;20.86;75.20;100988.88;5106285;27;20142;-68
2021/09/27 09:03:29;;;;;;;11.82;7.90;;;;;;;20.74;75.41;100976.66;5085022;28;20692;-67
2021/09/27 09:06:07;;;;;;;11.75;7.70;;;;;;;20.77;75.08;100973.69;5082260;28;20500;-67
2021/09/27 09:08:46;;;;;;;12.98;8.82;;;;;;;20.51;76.07;100983.38;5091758;28;20113;-67
2021/09/27 09:11:30;;;;;;;12.70;8.35;;;;;;;20.51;76.41;100984.22;5111884;27;20474;-68
2021/09/27 09:14:16;;;;;;;12.48;8.70;;;;;;;20.32;77.32;100977.06;5099937;27;20047;-68
2021/09/27 09:16:48;;;;;;;11.13;8.35;;;;;;;20.09;78.93;100976.56;5073096;28;20514;-68
2021/09/27 09:19:20;;;;;;;14.00;8.15;;;;;;;19.81;80.11;100977.41;5108358;27;20050;-68
2021/09/27 09:21:54;;;;;;;15.20;9.18;;;;;;;19.72;80.38;100979.09;5081467;27;20062;-69
2021/09/27 09:24:27;;;;;;;12.95;7.90;;;;;;;19.83;80.46;100975.47;5081801;28;20441;-67
2021/09/27 09:26:59;;;;;;;13.45;8.30;;;;;;;20.06;79.90;100976.00;5094334;28;20649;-68
2021/09/27 09:29:32;;;;;;;12.27;9.02;;;;;;;20.07;79.92;100972.34;5077926;28;21466;-66
2021/09/27 09:32:13;;;;;;;10.60;8.48;;;;;;;20.30;78.58;100978.19;5083249;28;20048;-69
2021/09/27 09:34:42;;;;;;;15.27;9.07;;;;;;;20.23;78.54;100977.94;5100159;27;20549;-67
2021/09/27 09:37:14;;;;;;;13.35;8.85;;;;;;;20.30;77.69;100976.34;5087383;28;20055;-68
2021/09/27 09:39:56;;;;;;;13.27;8.23;;;;;;;20.23;78.10;100977.94;5092477;27;20135;-68
2021/09/27 09:42:27;;;;;;;11.88;9.23;;;;;;;20.60;77.25;100978.00;5080806;28;20055;-67
2021/09/27 09:44:54;;;;;;;10.95;8.38;;;;;;;20.82;75.74;100975.94;5097655;28;20071;-68
2021/09/27 09:47:27;;;;;;;10.68;8.65;;;;;;;20.61;75.96;100984.19;5079866;28;20569;-70
2021/09/27 09:49:58;;;;;;;12.80;8.75;;;;;;;20.69;76.42;100987.81;5083077;27;20055;-67
2021/09/27 09:52:44;;;;;;;9.80;8.52;;;;;;;20.66;75.89;100976.56;5100725;28;20128;-67
2021/09/27 09:55:21;;;;;;;11.10;8.40;;;;;;;21.04;75.23;100974.69;5095538;28;20039;-67
2021/09/27 09:58:07;;;;;;;17.13;10.75;;;;;;;20.58;76.52;100979.13;5086096;28;20076;-69
2021/09/27 10:00:49;;;;;;;12.63;9.70;;;;;;;20.57;76.88;100972.09;5090796;28;20043;-67
2021/09/27 10:03:20;;;;;;;24.65;14.45;;;;;;;20.65;76.94;100980.22;5095303;28;20043;-67
2021/09/27 10:05:56;;;;;;;12.85;9.05;;;;;;;20.86;75.45;100980.00;5094457;28;20107;-66
2021/09/27 10:08:26;;;;;;;16.40;10.63;;;;;;;20.84;75.33;100982.81;5072755;28;20155;-68
2021/09/27 10:11:27;;;;;;;11.80;9.43;;;;;;;20.76;75.84;100995.25;5103139;27;20054;-68
2021/09/27 10:13:55;;;;;;;15.57;9.10;;;;;;;20.74;76.91;100996.22;5086053;27;20047;-67
2021/09/27 10:16:44;;;;;;;15.45;8.70;;;;;;;20.81;76.15;100988.47;5099579;28;20520;-67
2021/09/27 10:19:25;;;;;;;14.95;8.50;;;;;;;20.74;76.38;100976.66;5111603;28;20099;-68
2021/09/27 10:21:57;;;;;;;17.40;9.90;;;;;;;20.56;77.49;100979.28;5087004;28;20112;-68
2021/09/27 10:24:39;;;;;;;18.60;12.32;;;;;;;20.70;77.81;100980.63;5103314;28;20696;-68
2021/09/27 10:27:18;;;;;;;18.35;13.13;;;;;;;20.52;79.32;100983.22;5096361;28;20808;-67
2021/09/27 10:29:47;;;;;;;10.52;9.02;;;;;;;20.87;78.01;100977.16;5097234;28;20051;-66
2021/09/27 10:32:24;;;;;;;14.18;9.40;;;;;;;21.09;75.87;100977.75;5108285;28;20091;-67
2021/09/27 10:34:53;;;;;;;15.85;8.98;;;;;;;21.11;76.53;100989.16;5106498;28;20573;-67
2021/09/27 10:37:22;;;;;;;11.77;9.02;;;;;;;21.16;75.84;100981.50;5100389;28;20048;-68
2021/09/27 10:39:53;;;;;;;11.93;9.00;;;;;;;20.87;76.98;100990.53;5095279;28;20069;-66
2021/09/27 10:42:27;;;;;;;18.00;10.68;;;;;;;20.61;79.33;100993.03;5099232;28;20048;-68
2021/09/27 10:44:54;;;;;;;10.85;9.60;;;;;;;20.73;79.18;100980.34;5104457;22;20066;-66
2021/09/27 10:47:26;;;;;;;21.38;9.63;;;;;;;21.04;77.21;100978.22;5046460;28;20522;-66
2021/09/27 10:50:11;;;;;;;13.05;8.93;;;;;;;21.33;75.48;100977.22;5061973;28;20068;-66
2021/09/27 10:52:50;;;;;;;14.32;9.73;;;;;;;21.50;74.49;100973.69;5070420;28;20079;-66
2021/09/27 10:55:45;;;;;;;13.93;9.40;;;;;;;21.54;73.82;100974.25;5068722;28;20040;-64
2021/09/27 10:58:27;;;;;;;16.33;9.50;;;;;;;21.56;74.34;100973.09;5072029;28;20045;-65
2021/09/27 11:00:55;;;;;;;14.70;10.95;;;;;;;21.52;73.63;100970.88;5058042;28;20048;-65
2021/09/27 11:03:31;;;;;;;16.88;9.23;;;;;;;21.86;72.70;100971.84;5061308;28;20090;-65
2021/09/27 11:06:38;;;;;;;11.25;9.23;;;;;;;22.11;71.32;100972.88;5052433;28;20066;-65
2021/09/27 11:09:05;;;;;;;12.98;9.38;;;;;;;22.41;69.97;100974.25;5063260;28;20054;-63
2021/09/27 11:11:33;;;;;;;15.60;9.20;;;;;;;22.26;70.85;100958.94;5065887;28;20050;-64
2021/09/27 11:14:17;;;;;;;21.30;9.55;;;;;;;22.61;69.86;100957.97;5066450;28;20050;-66
2021/09/27 11:16:46;;;;;;;16.83;9.40;;;;;;;22.83;67.57;100952.00;5074927;28;20156;-64
2021/09/27 11:19:35;;;;;;;16.95;10.30;;;;;;;22.73;68.12;100951.28;5062127;28;20127;-66
2021/09/27 11:22:14;;;;;;;12.77;10.02;;;;;;;22.83;67.17;100953.81;5056942;28;20152;-64
2021/09/27 11:24:44;;;;;;;14.35;9.90;;;;;;;22.84;67.52;100947.47;5064796;28;20459;-66
2021/09/27 11:27:17;;;;;;;14.13;9.75;;;;;;;23.29;65.25;100952.50;5068773;28;20106;-64
2021/09/27 11:29:51;;;;;;;18.25;9.77;;;;;;;22.98;66.87;100947.72;5065051;28;20304;-64
2021/09/27 11:32:34;;;;;;;16.77;9.25;;;;;;;23.14;65.88;100954.13;5067383;28;20120;-66
2021/09/27 11:35:16;;;;;;;20.15;9.32;;;;;;;22.95;66.17;100945.34;5077349;28;20102;-63
2021/09/27 11:37:43;;;;;;;16.55;9.23;;;;;;;22.74;67.07;100942.25;5069887;28;20395;-65
2021/09/27 11:40:10;;;;;;;15.65;9.25;;;;;;;22.57;67.77;100953.91;5068003;28;20068;-65
2021/09/27 11:42:46;;;;;;;11.85;9.05;;;;;;;22.32;68.54;100953.75;5068171;28;20127;-65
2021/09/27 11:45:34;;;;;;;14.77;9.13;;;;;;;22.06;69.70;100955.56;5070583;28;20067;-66
2021/09/27 11:48:17;;;;;;;14.60;8.48;;;;;;;21.97;70.70;100952.84;5052777;28;20579;-68
2021/09/27 11:51:02;;;;;;;10.40;8.07;;;;;;;21.82;71.63;100946.34;5071430;28;20118;-65
2021/09/27 11:54:01;;;;;;;10.02;7.40;;;;;;;22.00;70.65;100947.16;5051041;28;20157;-65
2021/09/27 11:56:37;;;;;;;12.48;8.65;;;;;;;21.86;71.12;100947.72;5061870;28;20156;-64
2021/09/27 11:59:08;;;;;;;10.82;8.65;;;;;;;21.62;71.72;100942.19;5048967;28;20052;-66
2021/09/27 12:01:44;;;;;;;12.55;8.70;;;;;;;21.80;70.47;100940.31;5068409;28;20051;-66
2021/09/27 12:04:31;;;;;;;15.07;8.25;;;;;;;22.02;70.12;100944.34;5070201;28;20075;-65
2021/09/27 12:07:02;;;;;;;9.45;8.43;;;;;;;21.97;70.10;100938.56;5072335;28;20487;-64
2021/09/27 12:09:37;;;;;;;11.60;8.25;;;;;;;22.23;69.78;100950.19;5051890;28;20594;-65
2021/09/27 12:12:06;;;;;;;9.68;8.20;;;;;;;22.22;69.61;100940.47;5064080;28;20506;-65
2021/09/27 12:14:37;;;;;;;13.80;8.55;;;;;;;22.39;69.29;100936.03;5065444;28;20525;-66
2021/09/27 12:17:07;;;;;;;15.80;7.70;;;;;;;22.48;68.93;100935.09;5067459;28;20517;-65
2021/09/27 12:19:46;;;;;;;8.93;7.68;;;;;;;22.52;69.14;100932.94;5064458;28;20089;-64
2021/09/27 12:22:19;;;;;;;12.10;7.45;;;;;;;22.72;67.70;100930.81;5064117;28;20139;-66
2021/09/27 12:24:50;;;;;;;12.73;7.90;;;;;;;22.65;67.93;100938.69;5065402;28;20106;-64
2021/09/27 12:27:22;;;;;;;11.80;8.23;;;;;;;22.76;67.21;100940.22;5046219;28;20051;-66
2021/09/27 12:29:59;;;;;;;15.07;8.18;;;;;;;22.60;68.32;100940.16;5063533;28;20048;-65
2021/09/27 12:32:30;;;;;;;20.90;8.82;;;;;;;22.61;68.50;100934.66;5072906;28;20141;-65
2021/09/27 12:35:01;;;;;;;13.15;8.45;;;;;;;22.73;68.40;100937.84;5080682;28;20048;-66
2021/09/27 12:37:35;;;;;;;9.00;7.68;;;;;;;22.81;68.24;100932.53;5076992;28;20167;-65
2021/09/27 12:40:05;;;;;;;12.25;7.60;;;;;;;22.74;68.76;100921.63;5067017;28;20138;-65
2021/09/27 12:42:39;;;;;;;11.50;8.10;;;;;;;22.64;67.78;100923.56;5052279;28;20048;-66
2021/09/27 12:45:26;;;;;;;11.75;8.25;;;;;;;22.67;67.69;100930.47;5052453;28;20044;-65
2021/09/27 12:47:54;;;;;;;12.70;9.23;;;;;;;22.64;68.05;100936.97;5066059;28;20059;-66
2021/09/27 12:50:25;;;;;;;11.60;8.05;;;;;;;22.75;67.92;100936.72;5050984;28;20518;-65
2021/09/27 12:52:56;;;;;;;11.23;7.63;;;;;;;22.88;67.45;100938.09;5066877;28;20059;-66
2021/09/27 12:55:30;;;;;;;10.63;7.82;;;;;;;22.64;68.70;100936.97;5057404;28;20052;-65
2021/09/27 12:58:01;;;;;;;9.32;8.30;;;;;;;22.73;67.54;100944.06;5066339;28;20426;-65
2021/09/27 13:00:34;;;;;;;10.30;7.75;;;;;;;22.93;66.25;100935.81;5063836;28;20255;-65
2021/09/27 13:03:07;;;;;;;12.30;8.02;;;;;;;22.86;66.72;100940.94;5062005;28;20063;-65
2021/09/27 13:05:52;;;;;;;10.05;8.00;;;;;;;23.03;65.80;100941.03;5066093;28;20080;-64
2021/09/27 13:08:40;;;;;;;14.30;8.37;;;;;;;22.94;65.96;100940.16;5052620;28;20044;-67
2021/09/27 13:11:40;;;;;;;11.50;7.97;;;;;;;22.94;66.48;100940.16;5070615;28;20387;-65
2021/09/27 13:14:20;;;;;;;15.32;9.15;;;;;;;22.61;67.88;100939.19;5060762;28;20048;-66
2021/09/27 13:16:50;;;;;;;12.18;9.00;;;;;;;22.84;68.32;100940.25;5064895;28;20124;-66
2021/09/27 13:19:37;;;;;;;17.88;9.27;;;;;;;22.99;67.37;100933.28;5060339;28;20407;-65
2021/09/27 13:22:12;;;;;;;9.88;8.73;;;;;;;22.63;68.93;100939.84;5048960;28;20115;-65
2021/09/27 13:24:39;;;;;;;11.75;9.77;;;;;;;22.81;68.73;100937.06;5064594;28;20066;-66
2021/09/27 13:27:13;;;;;;;12.43;8.60;;;;;;;22.92;67.82;100940.34;5066609;28;20049;-67
2021/09/27 13:29:40;;;;;;;11.40;9.00;;;;;;;22.89;67.73;100940.66;5045014;28;20044;-66
2021/09/27 13:32:10;;;;;;;13.32;8.55;;;;;;;22.92;68.31;100931.41;5064615;28;20048;-65
2021/09/27 13:35:03;;;;;;;14.02;8.60;;;;;;;22.83;68.85;100930.53;5070619;28;20087;-66
2021/09/27 13:37:41;;;;;;;11.60;8.98;;;;;;;22.74;69.61;100931.50;5065026;28;20048;-63
2021/09/27 13:40:40;;;;;;;18.77;9.90;;;;;;;22.85;69.48;100933.88;5057040;28;20418;-67
2021/09/27 13:43:14;;;;;;;17.15;8.65;;;;;;;22.90;69.50;100926.22;5067533;28;20606;-67
2021/09/27 13:45:41;;;;;;;11.25;7.95;;;;;;;22.58;70.88;100926.91;5062395;28;20039;-65
2021/09/27 13:48:08;;;;;;;16.05;8.85;;;;;;;22.79;70.21;100918.44;5030951;28;20044;-67
2021/09/27 13:50:38;;;;;;;12.18;9.30;;;;;;;22.80;69.77;100924.66;5069260;28;20055;-65
2021/09/27 13:53:09;;;;;;;12.82;9.45;;;;;;;22.70;69.85;100920.25;5065246;28;20080;-65
2021/09/27 13:55:37;;;;;;;15.52;9.25;;;;;;;22.55;70.63;100919.16;5070094;28;20071;-66
2021/09/27 13:58:09;;;;;;;10.73;9.50;;;;;;;22.64;70.60;100918.19;5059630;28;20459;-66
2021/09/27 14:00:36;;;;;;;12.68;9.77;;;;;;;22.72;70.13;100907.50;5071404;28;20045;-66
2021/09/27 14:03:04;;;;;;;12.77;9.15;;;;;;;22.71;70.02;100899.63;5043971;28;20525;-66
2021/09/27 14:05:31;;;;;;;14.68;8.90;;;;;;;22.63;70.73;100905.78;5061134;28;20087;-66
2021/09/27 14:07:59;;;;;;;12.75;9.57;;;;;;;22.49;71.93;100895.69;5060486;28;20086;-65
2021/09/27 14:10:26;;;;;;;11.98;9.68;;;;;;;22.58;71.39;100900.06;5059150;28;20464;-70
2021/09/27 14:13:06;;;;;;;10.63;9.52;;;;;;;22.46;71.68;100901.34;5065830;28;20072;-65
2021/09/27 14:15:33;;;;;;;14.40;9.85;;;;;;;22.33;72.94;100901.78;5064495;28;20063;-65
2021/09/27 14:18:00;;;;;;;13.75;9.73;;;;;;;22.30;73.58;100914.72;5072721;28;20143;-65
2021/09/27 14:20:28;;;;;;;12.25;9.00;;;;;;;22.23;74.36;100917.16;5070815;28;20049;-64
2021/09/27 14:22:55;;;;;;;11.15;9.38;;;;;;;22.30;74.09;100918.22;5064937;28;20052;-65
2021/09/27 14:25:23;;;;;;;11.48;9.48;;;;;;;22.31;74.22;100917.22;5064060;28;20140;-66
2021/09/27 14:27:50;;;;;;;12.40;9.15;;;;;;;22.32;73.85;100918.06;5051068;28;20415;-65
2021/09/27 14:30:19;;;;;;;10.65;9.55;;;;;;;21.94;75.44;100918.31;5079849;28;20084;-65
2021/09/27 14:32:46;;;;;;;13.98;9.93;;;;;;;22.02;75.08;100917.53;5047951;28;20047;-63
2021/09/27 14:35:14;;;;;;;11.45;9.77;;;;;;;22.18;74.31;100917.63;5049946;28;20136;-65
2021/09/27 14:37:45;;;;;;;12.63;10.13;;;;;;;22.15;74.79;100922.47;5066726;28;20501;-65
2021/09/27 14:40:14;;;;;;;14.07;10.45;;;;;;;21.90;76.08;100921.47;5059570;28;20380;-64
2021/09/27 14:42:42;;;;;;;16.90;10.25;;;;;;;21.83;76.45;100923.91;5062596;28;20044;-65
2021/09/27 14:45:11;;;;;;;11.85;9.77;;;;;;;21.80;77.21;100918.03;5061477;28;20135;-65
2021/09/27 14:47:40;;;;;;;15.43;10.25;;;;;;;21.46;79.08;100921.44;5049331;28;20167;-64
2021/09/27 14:50:10;;;;;;;14.75;11.30;;;;;;;21.58;79.08;100919.38;5065871;28;20040;-65
2021/09/27 14:52:37;;;;;;;11.57;9.55;;;;;;;21.63;79.58;100920.59;5069242;28;20080;-64
2021/09/27 14:55:06;;;;;;;12.20;10.27;;;;;;;21.65;79.66;100926.63;5058450;28;20132;-65
2021/09/27 14:57:33;;;;;;;14.80;11.15;;;;;;;21.63;78.95;100925.94;5049526;28;20044;-66
2021/09/27 15:00:00;;;;;;;14.65;9.48;;;;;;;21.56;79.42;100911.47;5067533;28;20056;-65
2021/09/27 15:02:28;;;;;;;12.80;10.07;;;;;;;21.58;79.87;100911.34;5068714;28;20441;-66
2021/09/27 15:04:56;;;;;;;11.02;9.90;;;;;;;21.58;78.54;100917.53;5075130;28;20066;-64
2021/09/27 15:07:23;;;;;;;12.32;9.50;;;;;;;21.47;78.85;100915.06;5055181;28;20049;-65
2021/09/27 15:09:50;;;;;;;12.07;9.70;;;;;;;21.30;80.17;100918.56;5072166;28;20151;-66
2021/09/27 15:12:17;;;;;;;12.32;9.02;;;;;;;21.18;80.77;100915.28;5075248;28;20127;-66
2021/09/27 15:14:45;;;;;;;10.48;9.38;;;;;;;21.19;81.23;100915.13;5068384;28;20048;-65
2021/09/27 15:17:12;;;;;;;14.93;9.40;;;;;;;21.06;82.32;100917.31;5065249;28;20108;-65
2021/09/27 15:19:40;;;;;;;12.43;10.73;;;;;;;20.83;83.42;100919.59;5076758;28;20069;-66
2021/09/27 15:22:09;;;;;;;16.02;10.30;;;;;;;20.77;84.62;100920.19;5071497;28;20135;-65
2021/09/27 15:24:38;;;;;;;13.30;9.77;;;;;;;20.73;85.28;100925.00;5078486;28;20044;-65
2021/09/27 15:27:05;;;;;;;15.68;11.30;;;;;;;20.78;84.30;100918.34;5069831;28;20068;-65
2021/09/27 15:29:32;;;;;;;11.77;10.68;;;;;;;20.80;84.71;100919.88;5076932;28;20079;-66
2021/09/27 15:32:03;;;;;;;11.98;10.27;;;;;;;20.72;84.62;100925.16;5072785;28;20087;-66
2021/09/27 15:34:38;;;;;;;11.57;10.45;;;;;;;20.61;85.47;100934.19;5049923;28;20051;-66
2021/09/27 15:37:07;;;;;;;13.07;10.73;;;;;;;20.53;86.43;100922.53;5065711;28;20044;-65
2021/09/27 15:39:35;;;;;;;13.60;10.32;;;;;;;20.50;86.78;100925.53;5058199;28;20056;-65
2021/09/27 15:42:04;;;;;;;13.35;10.77;;;;;;;20.46;87.32;100927.63;5068003;28;20046;-65
2021/09/27 15:44:32;;;;;;;13.63;10.32;;;;;;;20.31;88.42;100923.72;5046688;28;20139;-65
2021/09/27 15:47:06;;;;;;;13.02;10.23;;;;;;;20.36;nan;100930.34;5061737;28;20044;-65
2021/09/27 15:49:36;;;;;;;11.88;10.65;;;;;;;20.21;89.25;100926.44;5088043;28;20530;-67
2021/09/27 15:52:03;;;;;;;14.77;10.85;;;;;;;20.21;88.24;100918.41;5076367;28;20079;-66
2021/09/27 15:54:31;;;;;;;14.65;12.25;;;;;;;20.11;88.54;100925.63;5077167;28;20049;-66
2021/09/27 15:56:59;;;;;;;12.80;11.18;;;;;;;19.97;89.68;100930.44;5070536;28;20094;-65
2021/09/27 15:59:28;;;;;;;12.43;11.13;;;;;;;19.86;90.56;100930.63;5046381;28;20132;-67
2021/09/27 16:01:55;;;;;;;17.13;11.38;;;;;;;19.86;91.43;100932.44;5069329;28;20547;-66
2021/09/27 16:04:25;;;;;;;12.68;11.10;;;;;;;19.80;92.38;100930.31;5059286;28;20239;-65
2021/09/27 16:06:53;;;;;;;12.90;10.43;;;;;;;19.65;93.45;100927.25;5062820;28;20694;-65
2021/09/27 16:09:21;;;;;;;12.15;10.65;;;;;;;19.54;94.29;100933.53;5054752;28;20060;-65
2021/09/27 16:11:49;;;;;;;14.73;11.55;;;;;;;19.42;95.22;100932.00;5053891;28;20137;-65
2021/09/27 16:14:16;;;;;;;13.38;11.00;;;;;;;19.41;94.74;100936.50;5072155;28;20242;-69
2021/09/27 16:16:45;;;;;;;13.13;10.63;;;;;;;19.42;93.98;100937.34;5074521;28;20090;-67
2021/09/27 16:19:15;;;;;;;13.20;10.02;;;;;;;19.45;93.72;100935.25;5071839;28;20040;-67
2021/09/27 16:21:43;;;;;;;11.52;10.27;;;;;;;19.49;93.51;100943.78;5074277;28;20048;-66
2021/09/27 16:24:10;;;;;;;17.20;11.70;;;;;;;19.39;94.10;100938.47;5080261;28;20140;-64
2021/09/27 16:26:38;;;;;;;13.10;10.90;;;;;;;19.27;94.92;100939.56;5073389;28;20191;-66
2021/09/27 16:29:07;;;;;;;12.65;11.02;;;;;;;19.17;95.93;100936.03;5067818;28;20055;-65
2021/09/27 16:31:55;;;;;;;13.10;11.68;;;;;;;19.07;96.81;100932.53;5068019;28;20074;-66
2021/09/27 16:34:25;;;;;;;14.15;10.52;;;;;;;19.09;96.24;100935.88;5067341;28;20139;-65
2021/09/27 16:36:53;;;;;;;12.43;10.57;;;;;;;19.15;95.19;100944.19;5069665;28;20152;-63
2021/09/27 16:39:22;;;;;;;13.07;11.15;;;;;;;19.04;95.77;100941.63;5056004;28;20457;-64
2021/09/27 16:41:49;;;;;;;16.55;12.15;;;;;;;19.09;95.75;100943.88;5065898;28;20099;-65
2021/09/27 16:44:37;;;;;;;15.73;11.15;;;;;;;18.99;95.56;100943.88;5065105;28;20119;-66
2021/09/27 16:47:08;;;;;;;16.20;12.93;;;;;;;18.94;96.01;100946.13;5061625;22;20506;-65
2021/09/27 16:49:35;;;;;;;13.05;10.77;;;;;;;18.88;96.96;100946.66;5040892;28;20510;-64
2021/09/27 16:52:02;;;;;;;14.63;10.95;;;;;;;18.80;97.91;100939.34;5016298;28;20524;-65
2021/09/27 16:54:30;;;;;;;14.95;11.43;;;;;;;18.77;97.35;100941.44;5057986;28;20053;-63
2021/09/27 16:56:57;;;;;;;12.80;11.52;;;;;;;18.82;96.78;100939.19;5069883;28;20061;-65
2021/09/27 16:59:24;;;;;;;13.07;11.23;;;;;;;18.84;96.69;100939.91;5066472;28;20049;-64
2021/09/27 17:01:52;;;;;;;18.20;13.75;;;;;;;18.74;98.04;100941.72;5062094;28;20152;-65
2021/09/27 17:04:19;;;;;;;14.55;11.20;;;;;;;18.61;98.63;100944.59;5065565;28;20544;-65
2021/09/27 17:06:46;;;;;;;13.45;11.32;;;;;;;18.55;99.71;100950.44;5055568;28;20156;-65
2021/09/27 17:09:13;;;;;;;15.02;12.55;;;;;;;18.50;99.84;100950.00;5048681;28;20542;-65
2021/09/27 17:11:41;;;;;;;15.45;11.50;;;;;;;18.42;100.00;100961.34;5062245;28;20040;-65
2021/09/27 17:17:50;;;;;;;14.32;11.73;;;;;;;18.38;100.00;100957.25;5042177;28;20045;-66
2021/09/27 17:19:43;;;;;;;18.42;13.48;;;;;;;18.21;100.00;100964.88;5039941;28;20140;-65
2021/09/27 17:22:18;;;;;;;14.20;12.70;;;;;;;18.18;100.00;100964.28;5047260;28;20047;-65
2021/09/27 17:24:46;;;;;;;;;;;;;;;18.16;100.00;100966.25;5069110;28;20147;-65
2021/09/27 17:27:14;;;;;;;14.25;12.27;;;;;;;18.09;100.00;100968.56;5049812;28;19920;-65
2021/09/27 17:29:41;;;;;;;15.85;13.73;;;;;;;18.04;100.00;100965.47;5046261;28;20102;-65
2021/09/27 17:32:09;;;;;;;17.23;13.23;;;;;;;18.00;100.00;100969.34;5049438;28;20102;-65
2021/09/27 17:34:38;;;;;;;17.95;14.02;;;;;;;17.98;100.00;100966.00;5059750;28;20072;-66